createdAt,value
2019-04-27T00:00:15.450Z,9.705698
2019-04-27T00:01:13.783Z,9.705695
2019-04-27T00:02:13.468Z,9.705680
2019-04-27T00:03:13.498Z,9.705674
2019-04-27T00:04:16.189Z,9.705670
2019-04-27T00:05:14.374Z,9.705698
2019-04-27T00:06:13.558Z,9.705662
2019-04-27T00:07:13.137Z,9.705690
2019-04-27T00:08:13.935Z,9.705666
2019-04-27T00:09:14.479Z,9.705666
2019-04-27T00:10:13.686Z,9.705680
2019-04-27T00:11:13.690Z,9.705683
2019-04-27T00:12:16.435Z,9.705649
2019-04-27T00:13:15.200Z,9.705681
2019-04-27T00:14:14.920Z,9.705729
2019-04-27T00:15:13.454Z,9.705692
2019-04-27T00:16:13.465Z,9.705686
2019-04-27T00:17:13.426Z,9.705679
2019-04-27T00:18:13.997Z,9.705623
2019-04-27T00:19:13.427Z,9.705661
2019-04-27T00:20:13.127Z,9.705706
2019-04-27T00:21:13.519Z,9.705626
2019-04-27T00:22:14.624Z,9.705711
2019-04-27T00:23:13.239Z,9.705711
2019-04-27T00:24:13.511Z,9.705699
2019-04-27T00:25:13.133Z,9.705701
2019-04-27T00:26:13.439Z,9.705612
2019-04-27T00:27:13.372Z,9.705637
2019-04-27T00:28:13.416Z,9.705590
2019-04-27T00:29:13.682Z,9.705645
2019-04-27T00:30:13.841Z,9.705621
2019-04-27T00:31:13.196Z,9.705630
2019-04-27T00:32:13.366Z,9.705631
2019-04-27T00:33:13.674Z,9.705685
2019-04-27T00:34:13.336Z,9.705644
2019-04-27T00:35:13.809Z,9.705662
2019-04-27T00:36:13.364Z,9.705641
2019-04-27T00:37:13.594Z,9.705633
2019-04-27T00:38:13.135Z,9.705627
2019-04-27T00:39:13.855Z,9.705620
2019-04-27T00:40:14.647Z,9.705630
2019-04-27T00:41:14.057Z,9.705696
2019-04-27T00:42:13.475Z,9.705667
2019-04-27T00:43:13.957Z,9.705673
2019-04-27T00:44:13.503Z,9.705676
2019-04-27T00:45:13.491Z,9.705676
2019-04-27T00:46:13.828Z,9.705664
2019-04-27T00:47:13.816Z,9.705622
2019-04-27T00:48:13.509Z,9.705609
2019-04-27T00:49:13.747Z,9.705614
2019-04-27T00:50:13.506Z,9.705662
2019-04-27T00:51:12.933Z,9.705583
2019-04-27T00:52:13.911Z,9.705646
2019-04-27T00:53:13.506Z,9.705591
2019-04-27T00:54:13.641Z,9.705625
2019-04-27T00:55:13.384Z,9.705605
2019-04-27T00:56:13.876Z,9.705626
2019-04-27T00:57:13.055Z,9.705656
2019-04-27T00:58:13.279Z,9.705647
2019-04-27T00:59:13.738Z,9.705708
2019-04-27T01:00:13.439Z,9.705681
2019-04-27T01:01:12.683Z,9.705713
2019-04-27T01:02:13.523Z,9.705669
2019-04-27T01:03:13.990Z,9.705623
2019-04-27T01:04:13.645Z,9.705656
2019-04-27T01:05:13.207Z,9.705643
2019-04-27T01:06:13.098Z,9.705635
2019-04-27T01:07:14.303Z,9.705627
2019-04-27T01:08:13.786Z,9.705631
2019-04-27T01:09:13.418Z,9.705554
2019-04-27T01:10:13.466Z,9.705597
2019-04-27T01:11:13.979Z,9.705607
2019-04-27T01:12:13.601Z,9.705552
2019-04-27T01:13:13.245Z,9.705550
2019-04-27T01:14:12.836Z,9.705554
2019-04-27T01:15:13.729Z,9.705636
2019-04-27T01:16:15.646Z,9.705652
2019-04-27T01:17:13.146Z,9.705634
2019-04-27T01:18:15.376Z,9.705579
2019-04-27T01:19:13.140Z,9.705585
2019-04-27T01:20:12.118Z,9.705628
2019-04-27T01:21:12.983Z,9.705648
2019-04-27T01:22:12.134Z,9.705675
2019-04-27T01:23:12.102Z,9.705662
2019-04-27T01:24:12.113Z,9.705631
2019-04-27T01:25:12.106Z,9.705600
2019-04-27T01:26:12.981Z,9.705617
2019-04-27T01:27:12.094Z,9.705541
2019-04-27T01:28:12.092Z,9.705657
2019-04-27T01:29:12.070Z,9.705615
2019-04-27T01:30:12.055Z,9.705595
2019-04-27T01:31:12.059Z,9.705634
2019-04-27T01:32:12.057Z,9.705584
2019-04-27T01:33:12.036Z,9.705571
2019-04-27T01:34:12.074Z,9.705638
2019-04-27T01:35:12.025Z,9.705582
2019-04-27T01:36:12.013Z,9.705585
2019-04-27T01:37:12.028Z,9.705593
2019-04-27T01:38:12.059Z,9.705613
2019-04-27T01:39:12.028Z,9.705611
2019-04-27T01:40:11.978Z,9.705573
2019-04-27T01:41:11.998Z,9.705602
2019-04-27T01:42:11.986Z,9.705575
2019-04-27T01:43:12.013Z,9.705585
2019-04-27T01:44:12.980Z,9.705595
2019-04-27T01:45:11.995Z,9.705568
2019-04-27T01:46:11.974Z,9.705594
2019-04-27T01:47:11.960Z,9.705616
2019-04-27T01:48:23.104Z,9.705584
2019-04-27T01:49:13.998Z,9.705562
2019-04-27T01:50:11.956Z,9.705663
2019-04-27T01:51:12.484Z,9.705622
2019-04-27T01:52:11.970Z,9.705615
2019-04-27T01:53:11.953Z,9.705560
2019-04-27T01:54:11.960Z,9.705585
2019-04-27T01:55:11.925Z,9.705580
2019-04-27T01:56:11.969Z,9.705570
2019-04-27T01:57:11.939Z,9.705606
2019-04-27T01:58:11.914Z,9.705581
2019-04-27T01:59:11.944Z,9.705555
2019-04-27T02:00:11.896Z,9.705582
2019-04-27T02:01:11.896Z,9.705545
2019-04-27T02:02:11.903Z,9.705539
2019-04-27T02:03:11.931Z,9.705527
2019-04-27T02:04:11.888Z,9.705510
2019-04-27T02:05:11.886Z,9.705479
2019-04-27T02:06:11.863Z,9.705551
2019-04-27T02:07:11.854Z,9.705534
2019-04-27T02:08:11.850Z,9.705532
2019-04-27T02:09:11.839Z,9.705567
2019-04-27T02:10:11.853Z,9.705581
2019-04-27T02:11:11.897Z,9.705567
2019-04-27T02:12:11.879Z,9.705571
2019-04-27T02:13:11.812Z,9.705572
2019-04-27T02:14:11.798Z,9.705565
2019-04-27T02:15:11.820Z,9.705559
2019-04-27T02:16:11.782Z,9.705559
2019-04-27T02:17:11.806Z,9.705536
2019-04-27T02:18:12.769Z,9.705526
2019-04-27T02:19:11.754Z,9.705595
2019-04-27T02:20:11.773Z,9.705585
2019-04-27T02:21:11.776Z,9.705640
2019-04-27T02:22:12.483Z,9.705629
2019-04-27T02:23:11.778Z,9.705613
2019-04-27T02:24:11.755Z,9.705544
2019-04-27T02:25:11.770Z,9.705529
2019-04-27T02:26:11.747Z,9.705619
2019-04-27T02:27:11.758Z,9.705628
2019-04-27T02:28:11.737Z,9.705587
2019-04-27T02:29:11.731Z,9.705564
2019-04-27T02:30:11.923Z,9.705595
2019-04-27T02:31:11.694Z,9.705557
2019-04-27T02:32:11.694Z,9.705574
2019-04-27T02:33:12.865Z,9.705572
2019-04-27T02:34:12.662Z,9.705566
2019-04-27T02:35:11.678Z,9.705580
2019-04-27T02:36:14.771Z,9.705579
2019-04-27T02:37:12.675Z,9.705597
2019-04-27T02:38:11.652Z,9.705606
2019-04-27T02:39:11.639Z,9.705587
2019-04-27T02:40:11.670Z,9.705622
2019-04-27T02:41:11.622Z,9.705635
2019-04-27T02:42:11.600Z,9.705657
2019-04-27T02:43:11.614Z,9.705636
2019-04-27T02:44:11.612Z,9.705635
2019-04-27T02:45:11.615Z,9.705636
2019-04-27T02:46:11.601Z,9.705626
2019-04-27T02:47:11.596Z,9.705607
2019-04-27T02:48:11.588Z,9.705599
2019-04-27T02:49:11.586Z,9.705585
2019-04-27T02:50:11.561Z,9.705593
2019-04-27T02:51:11.568Z,9.705571
2019-04-27T02:52:11.543Z,9.705599
2019-04-27T02:53:11.538Z,9.705619
2019-04-27T02:54:12.616Z,9.705621
2019-04-27T02:55:12.516Z,9.705635
2019-04-27T02:56:11.551Z,9.705605
2019-04-27T02:57:11.532Z,9.705612
2019-04-27T02:58:12.954Z,9.705637
2019-04-27T02:59:12.525Z,9.705640
2019-04-27T03:00:11.497Z,9.705648
2019-04-27T03:01:11.490Z,9.705634
2019-04-27T03:02:11.465Z,9.705633
2019-04-27T03:03:11.472Z,9.705619
2019-04-27T03:04:11.476Z,9.705616
2019-04-27T03:05:13.160Z,9.705615
2019-04-27T03:06:12.484Z,9.705646
2019-04-27T03:07:11.714Z,9.705627
2019-04-27T03:08:11.454Z,9.705591
2019-04-27T03:09:11.421Z,9.705601
2019-04-27T03:10:11.416Z,9.705572
2019-04-27T03:11:11.419Z,9.705567
2019-04-27T03:12:11.414Z,9.705586
2019-04-27T03:13:11.396Z,9.705606
2019-04-27T03:14:27.972Z,9.705602
2019-04-27T03:15:13.389Z,9.705588
2019-04-27T03:16:13.416Z,9.705660
2019-04-27T03:17:11.979Z,9.705627
2019-04-27T03:18:11.362Z,9.705622
2019-04-27T03:19:17.447Z,9.705582
2019-04-27T03:20:13.373Z,9.705582
2019-04-27T03:21:13.186Z,9.705521
2019-04-27T03:22:12.348Z,9.705589
2019-04-27T03:23:11.352Z,9.705594
2019-04-27T03:24:11.330Z,9.705588
2019-04-27T03:25:14.905Z,9.705629
2019-04-27T03:26:12.343Z,9.705609
2019-04-27T03:27:11.312Z,9.705606
2019-04-27T03:28:11.305Z,9.705619
2019-04-27T03:29:11.303Z,9.705604
2019-04-27T03:30:12.503Z,9.705623
2019-04-27T03:31:13.762Z,9.705599
2019-04-27T03:32:13.163Z,9.705599
2019-04-27T03:33:12.553Z,9.705589
2019-04-27T03:34:16.457Z,9.705606
2019-04-27T03:35:13.367Z,9.705548
2019-04-27T03:36:13.226Z,9.705599
2019-04-27T03:37:12.254Z,9.705621
2019-04-27T03:38:12.503Z,9.705598
2019-04-27T03:39:12.229Z,9.705637
2019-04-27T03:40:11.279Z,9.705627
2019-04-27T03:41:11.225Z,9.705598
2019-04-27T03:42:11.270Z,9.705684
2019-04-27T03:43:11.745Z,9.705673
2019-04-27T03:44:12.980Z,9.705618
2019-04-27T03:45:12.019Z,9.705559
2019-04-27T03:46:11.230Z,9.705536
2019-04-27T03:47:12.713Z,9.705580
2019-04-27T03:48:12.212Z,9.705547
2019-04-27T03:49:20.349Z,9.705558
2019-04-27T03:50:13.941Z,9.705559
2019-04-27T03:51:12.173Z,9.705576
2019-04-27T03:52:11.529Z,9.705621
2019-04-27T03:53:11.139Z,9.705621
2019-04-27T03:54:11.132Z,9.705592
2019-04-27T03:55:11.125Z,9.705542
2019-04-27T03:56:11.107Z,9.705553
2019-04-27T03:57:15.019Z,9.705575
2019-04-27T03:58:12.143Z,9.705581
2019-04-27T03:59:12.103Z,9.705574
2019-04-27T04:00:11.076Z,9.705614
2019-04-27T04:01:11.097Z,9.705622
2019-04-27T04:02:11.935Z,9.705628
2019-04-27T04:03:11.081Z,9.705627
2019-04-27T04:04:11.148Z,9.705608
2019-04-27T04:05:11.066Z,9.705617
2019-04-27T04:06:11.041Z,9.705603
2019-04-27T04:07:11.158Z,9.705609
2019-04-27T04:08:12.032Z,9.705616
2019-04-27T04:09:11.025Z,9.705610
2019-04-27T04:10:11.061Z,9.705637
2019-04-27T04:11:11.008Z,9.705651
2019-04-27T04:12:11.037Z,9.705654
2019-04-27T04:13:11.003Z,9.705639
2019-04-27T04:14:10.985Z,9.705622
2019-04-27T04:15:10.999Z,9.705608
2019-04-27T04:16:11.066Z,9.705636
2019-04-27T04:17:12.722Z,9.705618
2019-04-27T04:18:11.947Z,9.705602
2019-04-27T04:19:10.993Z,9.705647
2019-04-27T04:20:10.980Z,9.705619
2019-04-27T04:21:10.980Z,9.705621
2019-04-27T04:22:10.974Z,9.705606
2019-04-27T04:23:11.491Z,9.705606
2019-04-27T04:24:12.112Z,9.705591
2019-04-27T04:25:11.959Z,9.705592
2019-04-27T04:26:10.961Z,9.705631
2019-04-27T04:27:10.984Z,9.705634
2019-04-27T04:28:10.969Z,9.705665
2019-04-27T04:29:10.939Z,9.705597
2019-04-27T04:30:12.402Z,9.705635
2019-04-27T04:31:13.858Z,9.705633
2019-04-27T04:32:11.937Z,9.705624
2019-04-27T04:33:10.903Z,9.705615
2019-04-27T04:34:12.042Z,9.705641
2019-04-27T04:35:11.907Z,9.705656
2019-04-27T04:36:11.918Z,9.705664
2019-04-27T04:37:10.930Z,9.705628
2019-04-27T04:38:10.898Z,9.705625
2019-04-27T04:39:12.537Z,9.705588
2019-04-27T04:40:11.895Z,9.705657
2019-04-27T04:41:10.894Z,9.705646
2019-04-27T04:42:10.875Z,9.705626
2019-04-27T04:43:11.136Z,9.705666
2019-04-27T04:44:12.480Z,9.705626
2019-04-27T04:45:11.863Z,9.705625
2019-04-27T04:46:13.255Z,9.705626
2019-04-27T04:47:11.861Z,9.705586
2019-04-27T04:48:10.834Z,9.705649
2019-04-27T04:49:10.826Z,9.705664
2019-04-27T04:50:14.927Z,9.705625
2019-04-27T04:51:11.804Z,9.705602
2019-04-27T04:52:10.798Z,9.705618
2019-04-27T04:53:12.392Z,9.705647
2019-04-27T04:54:11.787Z,9.705610
2019-04-27T04:55:10.792Z,9.705652
2019-04-27T04:56:10.866Z,9.705615
2019-04-27T04:57:10.770Z,9.705623
2019-04-27T04:58:10.781Z,9.705647
2019-04-27T04:59:10.776Z,9.705628
2019-04-27T05:00:10.750Z,9.705610
2019-04-27T05:01:10.742Z,9.705590
2019-04-27T05:02:10.937Z,9.705635
2019-04-27T05:03:10.740Z,9.705626
2019-04-27T05:04:10.714Z,9.705604
2019-04-27T05:05:10.712Z,9.705611
2019-04-27T05:06:10.721Z,9.705567
2019-04-27T05:07:10.702Z,9.705655
2019-04-27T05:08:10.751Z,9.705660
2019-04-27T05:09:10.718Z,9.705666
2019-04-27T05:10:10.731Z,9.705672
2019-04-27T05:11:10.700Z,9.705610
2019-04-27T05:12:10.717Z,9.705654
2019-04-27T05:13:10.711Z,9.705637
2019-04-27T05:14:10.691Z,9.705686
2019-04-27T05:15:10.676Z,9.705674
2019-04-27T05:16:10.678Z,9.705629
2019-04-27T05:17:10.706Z,9.705606
2019-04-27T05:18:10.691Z,9.705603
2019-04-27T05:19:11.326Z,9.705636
2019-04-27T05:20:22.314Z,9.705634
2019-04-27T05:21:12.698Z,9.705617
2019-04-27T05:22:10.680Z,9.705622
2019-04-27T05:23:10.683Z,9.705622
2019-04-27T05:24:10.654Z,9.705617
2019-04-27T05:25:11.017Z,9.705661
2019-04-27T05:26:11.646Z,9.705643
2019-04-27T05:27:10.638Z,9.705674
2019-04-27T05:28:10.631Z,9.705648
2019-04-27T05:29:10.685Z,9.705673
2019-04-27T05:30:10.619Z,9.705663
2019-04-27T05:31:10.607Z,9.705670
2019-04-27T05:32:10.586Z,9.705688
2019-04-27T05:33:10.602Z,9.705738
2019-04-27T05:34:10.598Z,9.705681
2019-04-27T05:35:10.586Z,9.705679
2019-04-27T05:36:10.559Z,9.705711
2019-04-27T05:37:10.589Z,9.705707
2019-04-27T05:38:13.240Z,9.705654
2019-04-27T05:39:13.242Z,9.705669
2019-04-27T05:40:11.566Z,9.705673
2019-04-27T05:41:10.570Z,9.705733
2019-04-27T05:42:16.770Z,9.705711
2019-04-27T05:43:12.536Z,9.705726
2019-04-27T05:44:12.712Z,9.705688
2019-04-27T05:45:15.233Z,9.705651
2019-04-27T05:46:12.413Z,9.705681
2019-04-27T05:47:13.164Z,9.705632
2019-04-27T05:48:11.523Z,9.705674
2019-04-27T05:49:10.547Z,9.705699
2019-04-27T05:50:13.342Z,9.705712
2019-04-27T05:51:11.524Z,9.705684
2019-04-27T05:52:14.614Z,9.705647
2019-04-27T05:53:42.462Z,9.705675
2019-04-27T05:54:10.473Z,9.705707
2019-04-27T05:55:10.624Z,9.705682
2019-04-27T05:56:11.458Z,9.705680
2019-04-27T05:57:10.453Z,9.705682
2019-04-27T05:58:10.448Z,9.705684
2019-04-27T05:59:10.444Z,9.705660
2019-04-27T06:00:10.432Z,9.705660
2019-04-27T06:01:11.267Z,9.705688
2019-04-27T06:02:11.418Z,9.705675
2019-04-27T06:03:10.424Z,9.705693
2019-04-27T06:04:10.424Z,9.705688
2019-04-27T06:05:10.410Z,9.705659
2019-04-27T06:06:10.411Z,9.705654
2019-04-27T06:07:10.396Z,9.705633
2019-04-27T06:08:10.387Z,9.705686
2019-04-27T06:09:10.390Z,9.705688
2019-04-27T06:10:10.377Z,9.705709
2019-04-27T06:11:10.362Z,9.705630
2019-04-27T06:12:10.359Z,9.705692
2019-04-27T06:13:10.690Z,9.705658
2019-04-27T06:14:11.354Z,9.705628
2019-04-27T06:15:10.338Z,9.705664
2019-04-27T06:16:10.327Z,9.705674
2019-04-27T06:17:10.323Z,9.705666
2019-04-27T06:18:10.314Z,9.705648
2019-04-27T06:19:10.342Z,9.705674
2019-04-27T06:20:10.321Z,9.705601
2019-04-27T06:21:10.306Z,9.705579
2019-04-27T06:22:10.297Z,9.705664
2019-04-27T06:23:10.291Z,9.705610
2019-04-27T06:24:10.470Z,9.705605
2019-04-27T06:25:11.786Z,9.705613
2019-04-27T06:26:11.757Z,9.705677
2019-04-27T06:27:11.278Z,9.705658
2019-04-27T06:28:10.288Z,9.705637
2019-04-27T06:29:10.293Z,9.705688
2019-04-27T06:30:10.269Z,9.705633
2019-04-27T06:31:10.237Z,9.705593
2019-04-27T06:32:10.910Z,9.705667
2019-04-27T06:33:11.225Z,9.705665
2019-04-27T06:34:10.238Z,9.705625
2019-04-27T06:35:12.369Z,9.705655
2019-04-27T06:36:11.207Z,9.705652
2019-04-27T06:37:10.206Z,9.705768
2019-04-27T06:38:11.594Z,9.705613
2019-04-27T06:39:10.222Z,9.705619
2019-04-27T06:40:10.212Z,9.705611
2019-04-27T06:41:10.277Z,9.705630
2019-04-27T06:42:17.930Z,9.705585
2019-04-27T06:43:12.180Z,9.705613
2019-04-27T06:44:11.442Z,9.705687
2019-04-27T06:45:11.179Z,9.705571
2019-04-27T06:46:10.154Z,9.705584
2019-04-27T06:47:10.144Z,9.705639
2019-04-27T06:48:10.136Z,9.705662
2019-04-27T06:49:11.093Z,9.705636
2019-04-27T06:50:11.133Z,9.705633
2019-04-27T06:51:10.141Z,9.705714
2019-04-27T06:52:10.114Z,9.705666
2019-04-27T06:53:10.113Z,9.705607
2019-04-27T06:54:10.098Z,9.705574
2019-04-27T06:55:10.109Z,9.705665
2019-04-27T06:56:10.088Z,9.705669
2019-04-27T06:57:10.091Z,9.705662
2019-04-27T06:58:10.071Z,9.705658
2019-04-27T06:59:10.071Z,9.705626
2019-04-27T07:00:10.064Z,9.705626
2019-04-27T07:01:11.076Z,9.705685
2019-04-27T07:02:11.042Z,9.705649
2019-04-27T07:03:10.624Z,9.705617
2019-04-27T07:04:11.101Z,9.705626
2019-04-27T07:05:10.030Z,9.705645
2019-04-27T07:06:09.999Z,9.705619
2019-04-27T07:07:10.997Z,9.705598
2019-04-27T07:08:09.995Z,9.705629
2019-04-27T07:09:09.984Z,9.705672
2019-04-27T07:10:09.990Z,9.705594
2019-04-27T07:11:11.575Z,9.705636
2019-04-27T07:12:10.957Z,9.705596
2019-04-27T07:13:09.954Z,9.705588
2019-04-27T07:14:11.599Z,9.705615
2019-04-27T07:15:09.959Z,9.705641
2019-04-27T07:16:09.929Z,9.705628
2019-04-27T07:17:09.922Z,9.705629
2019-04-27T07:18:09.931Z,9.705644
2019-04-27T07:19:09.909Z,9.705639
2019-04-27T07:20:09.910Z,9.705625
2019-04-27T07:21:16.896Z,9.705629
2019-04-27T07:22:11.880Z,9.705626
2019-04-27T07:23:10.881Z,9.705646
2019-04-27T07:24:09.925Z,9.705658
2019-04-27T07:25:09.876Z,9.705637
2019-04-27T07:26:09.859Z,9.705610
2019-04-27T07:27:09.848Z,9.705597
2019-04-27T07:28:09.867Z,9.705598
2019-04-27T07:29:09.909Z,9.705591
2019-04-27T07:30:11.774Z,9.705569
2019-04-27T07:31:10.836Z,9.705617
2019-04-27T07:32:09.827Z,9.705633
2019-04-27T07:33:10.511Z,9.705609
2019-04-27T07:34:09.817Z,9.705608
2019-04-27T07:35:09.981Z,9.705622
2019-04-27T07:36:09.823Z,9.705625
2019-04-27T07:37:11.130Z,9.705630
2019-04-27T07:38:10.016Z,9.705649
2019-04-27T07:39:11.573Z,9.705646
2019-04-27T07:40:10.800Z,9.705674
2019-04-27T07:41:09.780Z,9.705677
2019-04-27T07:42:09.784Z,9.705606
2019-04-27T07:43:09.766Z,9.705599
2019-04-27T07:44:10.192Z,9.705636
2019-04-27T07:45:11.288Z,9.705621
2019-04-27T07:46:10.766Z,9.705633
2019-04-27T07:47:09.824Z,9.705645
2019-04-27T07:48:10.748Z,9.705611
2019-04-27T07:49:09.744Z,9.705632
2019-04-27T07:50:09.787Z,9.705625
2019-04-27T07:51:09.730Z,9.705611
2019-04-27T07:52:09.725Z,9.705613
2019-04-27T07:53:09.747Z,9.705617
2019-04-27T07:54:09.740Z,9.705606
2019-04-27T07:55:09.913Z,9.705582
2019-04-27T07:56:10.841Z,9.705649
2019-04-27T07:57:09.936Z,9.705654
2019-04-27T07:58:10.724Z,9.705646
2019-04-27T07:59:09.704Z,9.705625
2019-04-27T08:00:09.720Z,9.705685
2019-04-27T08:01:09.687Z,9.705663
2019-04-27T08:02:11.011Z,9.705616
2019-04-27T08:03:10.672Z,9.705665
2019-04-27T08:04:09.664Z,9.705622
2019-04-27T08:05:09.656Z,9.705640
2019-04-27T08:06:10.897Z,9.705675
2019-04-27T08:07:10.645Z,9.705686
2019-04-27T08:08:09.637Z,9.705611
2019-04-27T08:09:09.623Z,9.705606
2019-04-27T08:10:09.888Z,9.705567
2019-04-27T08:11:11.389Z,9.705621
2019-04-27T08:12:11.015Z,9.705661
2019-04-27T08:13:10.593Z,9.705673
2019-04-27T08:14:09.592Z,9.705693
2019-04-27T08:15:09.581Z,9.705690
2019-04-27T08:16:09.584Z,9.705704
2019-04-27T08:17:09.826Z,9.705657
2019-04-27T08:18:10.556Z,9.705651
2019-04-27T08:19:09.992Z,9.705641
2019-04-27T08:20:10.549Z,9.705672
2019-04-27T08:21:09.545Z,9.705658
2019-04-27T08:22:09.777Z,9.705635
2019-04-27T08:23:10.519Z,9.705669
2019-04-27T08:24:11.088Z,9.705669
2019-04-27T08:25:09.647Z,9.705696
2019-04-27T08:26:09.509Z,9.705679
2019-04-27T08:27:09.494Z,9.705604
2019-04-27T08:28:10.457Z,9.705608
2019-04-27T08:29:09.469Z,9.705637
2019-04-27T08:30:30.473Z,9.705584
2019-04-27T08:31:10.459Z,9.705561
2019-04-27T08:32:09.735Z,9.705562
2019-04-27T08:33:10.462Z,9.705522
2019-04-27T08:34:09.459Z,9.705566
2019-04-27T08:35:09.595Z,9.705581
2019-04-27T08:36:10.458Z,9.705589
2019-04-27T08:37:09.431Z,9.705578
2019-04-27T08:38:09.433Z,9.705582
2019-04-27T08:39:09.426Z,9.705576
2019-04-27T08:40:09.447Z,9.705573
2019-04-27T08:41:09.422Z,9.705577
2019-04-27T08:42:09.642Z,9.705589
2019-04-27T08:43:10.393Z,9.705556
2019-04-27T08:44:09.842Z,9.705582
2019-04-27T08:45:10.378Z,9.705626
2019-04-27T08:46:09.387Z,9.705626
2019-04-27T08:47:09.696Z,9.705634
2019-04-27T08:48:10.385Z,9.705629
2019-04-27T08:49:10.202Z,9.705623
2019-04-27T08:50:09.384Z,9.705608
2019-04-27T08:51:09.643Z,9.705611
2019-04-27T08:52:10.379Z,9.705608
2019-04-27T08:53:09.862Z,9.705570
2019-04-27T08:54:10.385Z,9.705594
2019-04-27T08:55:09.661Z,9.705611
2019-04-27T08:56:10.376Z,9.705626
2019-04-27T08:57:09.808Z,9.705616
2019-04-27T08:58:10.399Z,9.705625
2019-04-27T08:59:09.620Z,9.705621
2019-04-27T09:00:10.337Z,9.705617
2019-04-27T09:01:10.343Z,9.705624
2019-04-27T09:02:10.327Z,9.705618
2019-04-27T09:03:09.645Z,9.705620
2019-04-27T09:04:11.267Z,9.705631
2019-04-27T09:05:10.301Z,9.705625
2019-04-27T09:06:09.302Z,9.705592
2019-04-27T09:07:09.302Z,9.705614
2019-04-27T09:08:09.277Z,9.705642
2019-04-27T09:09:09.579Z,9.705630
2019-04-27T09:10:10.313Z,9.705625
2019-04-27T09:11:09.273Z,9.705625
2019-04-27T09:12:09.574Z,9.705593
2019-04-27T09:13:10.244Z,9.705550
2019-04-27T09:14:09.230Z,9.705591
2019-04-27T09:15:10.001Z,9.705602
2019-04-27T09:16:11.141Z,9.705600
2019-04-27T09:17:09.685Z,9.705651
2019-04-27T09:18:10.201Z,9.705609
2019-04-27T09:19:09.185Z,9.705596
2019-04-27T09:20:09.535Z,9.705598
2019-04-27T09:21:10.604Z,9.705601
2019-04-27T09:22:15.684Z,9.705615
2019-04-27T09:23:11.160Z,9.705610
2019-04-27T09:24:09.494Z,9.705629
2019-04-27T09:25:10.145Z,9.705590
2019-04-27T09:26:09.565Z,9.705567
2019-04-27T09:27:10.120Z,9.705600
2019-04-27T09:28:10.132Z,9.705626
2019-04-27T09:29:09.120Z,9.705602
2019-04-27T09:30:10.268Z,9.705578
2019-04-27T09:31:09.333Z,9.705515
2019-04-27T09:32:10.093Z,9.705579
2019-04-27T09:33:09.090Z,9.705531
2019-04-27T09:34:10.560Z,9.705552
2019-04-27T09:35:09.071Z,9.705540
2019-04-27T09:36:09.125Z,9.705511
2019-04-27T09:37:09.077Z,9.705503
2019-04-27T09:38:09.045Z,9.705557
2019-04-27T09:39:09.048Z,9.705561
2019-04-27T09:40:09.035Z,9.705519
2019-04-27T09:41:09.022Z,9.705529
2019-04-27T09:42:09.120Z,9.705596
2019-04-27T09:43:09.971Z,9.705583
2019-04-27T09:44:09.119Z,9.705579
2019-04-27T09:45:09.034Z,9.705613
2019-04-27T09:46:08.995Z,9.705616
2019-04-27T09:47:09.007Z,9.705584
2019-04-27T09:48:09.007Z,9.705578
2019-04-27T09:49:10.749Z,9.705567
2019-04-27T09:50:09.019Z,9.705606
2019-04-27T09:51:08.972Z,9.705609
2019-04-27T09:52:08.961Z,9.705594
2019-04-27T09:53:08.937Z,9.705627
2019-04-27T09:54:08.976Z,9.705652
2019-04-27T09:55:08.963Z,9.705606
2019-04-27T09:56:08.964Z,9.705592
2019-04-27T09:57:08.948Z,9.705596
2019-04-27T09:58:08.931Z,9.705548
2019-04-27T09:59:08.908Z,9.705599
2019-04-27T10:00:08.912Z,9.705543
2019-04-27T10:01:09.081Z,9.705575
2019-04-27T10:02:09.005Z,9.705606
2019-04-27T10:03:08.909Z,9.705608
2019-04-27T10:04:08.980Z,9.705602
2019-04-27T10:05:09.118Z,9.705631
2019-04-27T10:06:08.926Z,9.705579
2019-04-27T10:07:08.991Z,9.705500
2019-04-27T10:08:08.958Z,9.705591
2019-04-27T10:09:08.899Z,9.705588
2019-04-27T10:10:08.866Z,9.705573
2019-04-27T10:11:08.856Z,9.705611
2019-04-27T10:12:08.865Z,9.705626
2019-04-27T10:13:08.975Z,9.705642
2019-04-27T10:14:09.025Z,9.705672
2019-04-27T10:15:08.805Z,9.705642
2019-04-27T10:16:08.802Z,9.705601
2019-04-27T10:17:08.840Z,9.705641
2019-04-27T10:18:08.775Z,9.705639
2019-04-27T10:19:08.762Z,9.705630
2019-04-27T10:20:08.769Z,9.705661
2019-04-27T10:21:08.759Z,9.705616
2019-04-27T10:22:08.795Z,9.705619
2019-04-27T10:23:08.746Z,9.705631
2019-04-27T10:24:08.758Z,9.705646
2019-04-27T10:25:08.734Z,9.705627
2019-04-27T10:26:08.806Z,9.705629
2019-04-27T10:27:08.772Z,9.705612
2019-04-27T10:28:08.877Z,9.705638
2019-04-27T10:29:08.736Z,9.705611
2019-04-27T10:30:08.709Z,9.705634
2019-04-27T10:31:08.712Z,9.705662
2019-04-27T10:32:08.719Z,9.705579
2019-04-27T10:33:08.710Z,9.705585
2019-04-27T10:34:08.824Z,9.705686
2019-04-27T10:35:08.684Z,9.705745
2019-04-27T10:36:08.722Z,9.705738
2019-04-27T10:37:09.489Z,9.705679
2019-04-27T10:38:08.704Z,9.705670
2019-04-27T10:39:08.661Z,9.705686
2019-04-27T10:40:08.632Z,9.705640
2019-04-27T10:41:08.661Z,9.705653
2019-04-27T10:42:08.693Z,9.705703
2019-04-27T10:43:08.786Z,9.705630
2019-04-27T10:44:08.695Z,9.705593
2019-04-27T10:45:08.627Z,9.705559
2019-04-27T10:46:08.621Z,9.705619
2019-04-27T10:47:08.598Z,9.705604
2019-04-27T10:48:08.608Z,9.705616
2019-04-27T10:49:08.565Z,9.705579
2019-04-27T10:50:08.670Z,9.705597
2019-04-27T10:51:08.586Z,9.705562
2019-04-27T10:52:08.603Z,9.705572
2019-04-27T10:53:08.552Z,9.705583
2019-04-27T10:54:08.580Z,9.705649
2019-04-27T10:55:08.553Z,9.705606
2019-04-27T10:56:08.536Z,9.705557
2019-04-27T10:57:08.509Z,9.705575
2019-04-27T10:58:08.524Z,9.705648
2019-04-27T10:59:09.760Z,9.705631
2019-04-27T11:00:09.482Z,9.705621
2019-04-27T11:01:08.506Z,9.705580
2019-04-27T11:02:08.552Z,9.705557
2019-04-27T11:03:08.502Z,9.705563
2019-04-27T11:04:08.472Z,9.705579
2019-04-27T11:05:08.489Z,9.705529
2019-04-27T11:06:08.470Z,9.705551
2019-04-27T11:07:08.463Z,9.705677
2019-04-27T11:08:08.523Z,9.705631
2019-04-27T11:09:08.450Z,9.705623
2019-04-27T11:10:08.430Z,9.705635
2019-04-27T11:11:08.432Z,9.705610
2019-04-27T11:12:08.415Z,9.705680
2019-04-27T11:13:08.458Z,9.705647
2019-04-27T11:14:08.444Z,9.705639
2019-04-27T11:15:08.442Z,9.705618
2019-04-27T11:16:08.383Z,9.705637
2019-04-27T11:17:08.378Z,9.705664
2019-04-27T11:18:08.372Z,9.705729
2019-04-27T11:19:08.381Z,9.705719
2019-04-27T11:20:08.469Z,9.705701
2019-04-27T11:21:08.378Z,9.705686
2019-04-27T11:22:08.382Z,9.705642
2019-04-27T11:23:12.279Z,9.705623
2019-04-27T11:24:09.370Z,9.705625
2019-04-27T11:25:08.329Z,9.705595
2019-04-27T11:26:08.334Z,9.705557
2019-04-27T11:27:08.339Z,9.705580
2019-04-27T11:28:08.311Z,9.705607
2019-04-27T11:29:08.393Z,9.705582
2019-04-27T11:30:08.458Z,9.705621
2019-04-27T11:31:08.301Z,9.705665
2019-04-27T11:32:08.280Z,9.705697
2019-04-27T11:33:08.288Z,9.705687
2019-04-27T11:34:08.288Z,9.705689
2019-04-27T11:35:08.283Z,9.705640
2019-04-27T11:36:08.329Z,9.705641
2019-04-27T11:37:08.267Z,9.705665
2019-04-27T11:38:08.232Z,9.705650
2019-04-27T11:39:08.245Z,9.705595
2019-04-27T11:40:08.252Z,9.705680
2019-04-27T11:41:08.257Z,9.705658
2019-04-27T11:42:08.236Z,9.705595
2019-04-27T11:43:08.218Z,9.705543
2019-04-27T11:44:08.214Z,9.705506